Wetterdaten: Woche 21.01.19 - 27.01.19 (KW4)
Datum Zeit Temp. Aussen Temp. o. S. +5cm Feuchte Auss Luftdruck Regen Sonnenschein Regendauer Solar Windben Empfang
21.01.2019 00:00 -5,6 C -6,2 C -7,4 C 90 % 1020,2 hPa 0,0 l/m 0,00 h 0,07 h 0 W/m 0,0 km/h (0 Bft) 97,83 %
21.01.2019 01:00 -6,3 C -7,0 C -7,8 C 90 % 1020,3 hPa 0,0 l/m 0,00 h 0,00 h 0 W/m 0,0 km/h (0 Bft) 98,65 %
21.01.2019 02:00 -6,8 C -7,3 C -8,0 C 91 % 1020,6 hPa 0,0 l/m 0,00 h 0,00 h 0 W/m 0,6 km/h (0 Bft) 97,29 %
21.01.2019 03:00 -6,7 C -6,9 C -8,0 C 92 % 1021,0 hPa 0,0 l/m 0,00 h 0,00 h 0 W/m 0,0 km/h (0 Bft) 97,15 %
21.01.2019 04:00 -6,6 C -6,8 C -8,2 C 92 % 1020,7 hPa 0,0 l/m 0,00 h 0,00 h 0 W/m 0,0 km/h (0 Bft) 97,28 %
21.01.2019 05:00 -6,5 C -6,8 C -7,9 C 93 % 1020,7 hPa 0,0 l/m 0,00 h 0,00 h 0 W/m 0,0 km/h (0 Bft) 96,79 %
21.01.2019 06:00 -6,6 C -7,1 C -8,2 C 93 % 1020,8 hPa 0,0 l/m 0,00 h 0,00 h 0 W/m 0,0 km/h (0 Bft) 98,20 %
21.01.2019 07:00 -6,3 C -6,5 C -7,6 C 94 % 1020,9 hPa 0,0 l/m 0,00 h 0,00 h 0 W/m 0,0 km/h (0 Bft) 96,16 %
21.01.2019 08:00 -6,1 C -6,2 C -7,2 C 94 % 1021,3 hPa 0,0 l/m 0,00 h 0,00 h 9 W/m 5,1 km/h (1 Bft) 97,29 %
21.01.2019 09:00 -5,8 C -4,4 C -6,5 C 95 % 1021,8 hPa 0,0 l/m 0,27 h 0,00 h 48 W/m 4,8 km/h (1 Bft) 98,08 %
21.01.2019 10:00 -4,0 C -0,3 C -5,1 C 95 % 1021,8 hPa 0,0 l/m 0,93 h 0,00 h 183 W/m 9,0 km/h (2 Bft) 97,01 %
21.01.2019 11:00 -2,2 C 2,5 C -3,5 C 93 % 1021,7 hPa 0,0 l/m 1,00 h 0,00 h 264 W/m 8,6 km/h (2 Bft) 99,57 %
21.01.2019 12:00 -0,2 C 5,1 C 0,3 C 84 % 1021,2 hPa 0,0 l/m 1,00 h 0,00 h 344 W/m 11,8 km/h (2 Bft) 97,24 %
21.01.2019 13:00 1,2 C 6,4 C -0,2 C 77 % 1020,6 hPa 0,0 l/m 1,00 h 0,00 h 331 W/m 11,5 km/h (2 Bft) 99,15 %
21.01.2019 14:00 2,1 C 6,9 C 0,4 C 73 % 1019,9 hPa 0,0 l/m 1,00 h 0,00 h 269 W/m 9,3 km/h (2 Bft) 96,98 %
21.01.2019 15:00 1,2 C 0,8 C -0,6 C 75 % 1019,1 hPa 0,0 l/m 0,27 h 0,00 h 81 W/m 11,0 km/h (2 Bft) 97,42 %
21.01.2019 16:00 0,3 C -0,4 C -1,3 C 79 % 1018,9 hPa 0,0 l/m 0,00 h 0,00 h 21 W/m 7,8 km/h (2 Bft) 94,53 %
21.01.2019 17:00 -0,5 C -1,4 C -2,2 C 81 % 1018,6 hPa 0,0 l/m 0,00 h 0,00 h 5 W/m 5,1 km/h (1 Bft) 94,14 %
21.01.2019 18:00 -1,3 C -2,1 C -3,0 C 85 % 1018,2 hPa 0,0 l/m 0,00 h 0,00 h 0 W/m 5,7 km/h (1 Bft) 95,37 %
21.01.2019 19:00 -1,9 C -2,7 C -3,6 C 87 % 1018,0 hPa 0,0 l/m 0,00 h 0,00 h 0 W/m 4,1 km/h (1 Bft) 99,45 %
21.01.2019 20:00 -2,4 C -3,2 C -4,3 C 88 % 1017,6 hPa 0,0 l/m 0,00 h 0,00 h 0 W/m 4,8 km/h (1 Bft) 97,42 %
21.01.2019 21:00 -3,0 C -3,5 C -4,6 C 89 % 1017,3 hPa 0,0 l/m 0,00 h 0,00 h 0 W/m 4,8 km/h (1 Bft) 97,75 %
21.01.2019 22:00 -3,3 C -3,9 C -4,5 C 89 % 1016,9 hPa 0,0 l/m 0,00 h 0,00 h 0 W/m 8,7 km/h (2 Bft) 95,62 %
21.01.2019 23:00 -3,7 C -4,3 C -5,0 C 89 % 1016,1 hPa 0,0 l/m 0,00 h 0,00 h 0 W/m 12,6 km/h (3 Bft) 98,12 %
22.01.2019 00:00 -4,0 C -4,4 C -5,0 C 89 % 1015,3 hPa 0,0 l/m 0,00 h 0,00 h 0 W/m 12,2 km/h (2 Bft) 96,26 %
22.01.2019 01:00 -4,2 C -4,6 C -5,2 C 90 % 1014,6 hPa 0,0 l/m 0,00 h 0,00 h 0 W/m 14,4 km/h (3 Bft) 99,67 %
22.01.2019 02:00 -4,5 C -5,0 C -5,6 C 91 % 1013,7 hPa 0,0 l/m 0,00 h 0,00 h 0 W/m 15,5 km/h (3 Bft) 95,18 %
22.01.2019 03:00 -4,8 C -5,3 C -6,0 C 92 % 1012,5 hPa 0,0 l/m 0,00 h 0,00 h 0 W/m 17,8 km/h (3 Bft) 97,57 %
22.01.2019 04:00 -5,1 C -5,6 C -6,1 C 91 % 1011,4 hPa 0,0 l/m 0,00 h 0,00 h 0 W/m 19,9 km/h (4 Bft) 98,11 %
22.01.2019 05:00 -5,3 C -5,6 C -6,1 C 92 % 1010,4 hPa 0,0 l/m 0,00 h 0,00 h 0 W/m 18,5 km/h (3 Bft) 97,19 %
22.01.2019 06:00 -5,2 C -5,6 C -6,1 C 91 % 1009,4 hPa 0,0 l/m 0,00 h 0,00 h 0 W/m 18,4 km/h (3 Bft) 96,61 %
22.01.2019 07:00 -4,9 C -5,1 C -5,8 C 91 % 1008,4 hPa 0,0 l/m 0,00 h 0,00 h 0 W/m 21,0 km/h (4 Bft) 96,45 %
22.01.2019 08:00 -4,6 C -5,0 C -5,6 C 89 % 1007,8 hPa 0,0 l/m 0,00 h 0,00 h 13 W/m 22,4 km/h (4 Bft) 97,82 %
22.01.2019 09:00 -4,1 C -3,7 C -4,6 C 89 % 1007,1 hPa 0,0 l/m 0,70 h 0,00 h 78 W/m 25,0 km/h (4 Bft) 98,45 %
22.01.2019 10:00 -3,0 C -2,2 C -3,4 C 85 % 1006,1 hPa 0,0 l/m 0,90 h 0,00 h 156 W/m 29,4 km/h (5 Bft) 95,47 %
22.01.2019 11:00 -2,2 C -1,5 C -2,5 C 81 % 1005,4 hPa 0,0 l/m 0,57 h 0,00 h 175 W/m 29,3 km/h (5 Bft) 97,94 %
22.01.2019 12:00 -1,3 C 0,2 C -1,1 C 78 % 1004,8 hPa 0,0 l/m 0,73 h 0,00 h 252 W/m 28,7 km/h (4 Bft) 98,75 %
22.01.2019 13:00 -0,4 C 1,1 C -0,7 C 75 % 1003,7 hPa 0,0 l/m 0,83 h 0,00 h 242 W/m 28,1 km/h (4 Bft) 93,46 %
22.01.2019 14:00 -0,6 C -1,0 C -1,2 C 76 % 1002,8 hPa 0,0 l/m 0,00 h 0,00 h 56 W/m 28,2 km/h (4 Bft) 99,50 %
22.01.2019 15:00 -0,8 C -1,1 C -1,7 C 79 % 1002,3 hPa 0,0 l/m 0,00 h 0,00 h 47 W/m 28,1 km/h (4 Bft) 98,72 %
22.01.2019 16:00 -1,1 C -1,7 C -2,2 C 83 % 1002,0 hPa 0,0 l/m 0,00 h 0,00 h 12 W/m 24,0 km/h (4 Bft) 94,30 %
22.01.2019 17:00 -2,1 C -2,8 C -3,2 C 91 % 1001,6 hPa 0,0 l/m 0,00 h 0,00 h 0 W/m 22,4 km/h (4 Bft) 98,51 %
22.01.2019 18:00 -2,4 C -2,8 C -3,3 C 93 % 1001,2 hPa 0,0 l/m 0,00 h 0,00 h 0 W/m 25,3 km/h (4 Bft) 96,94 %
22.01.2019 19:00 -2,4 C -2,8 C -3,3 C 95 % 1000,6 hPa 0,0 l/m 0,00 h 0,00 h 0 W/m 24,2 km/h (4 Bft) 97,68 %
22.01.2019 20:00 -2,3 C -2,8 C -3,3 C 96 % 1000,2 hPa 0,0 l/m 0,00 h 0,00 h 0 W/m 24,9 km/h (4 Bft) 96,81 %
22.01.2019 21:00 -2,5 C -2,8 C -3,3 C 96 % 999,7 hPa 0,0 l/m 0,00 h 0,00 h 0 W/m 21,8 km/h (4 Bft) 96,56 %
22.01.2019 22:00 -2,6 C -2,8 C -3,3 C 96 % 999,3 hPa 0,0 l/m 0,00 h 0,00 h 0 W/m 20,2 km/h (4 Bft) 98,82 %
22.01.2019 23:00 -2,6 C -2,8 C -3,3 C 96 % 999,0 hPa 0,0 l/m 0,00 h 0,00 h 0 W/m 19,7 km/h (3 Bft) 97,66 %
23.01.2019 00:00 -2,6 C -2,8 C -3,3 C 97 % 998,5 hPa 0,0 l/m 0,00 h 0,00 h 0 W/m 17,6 km/h (3 Bft) 96,25 %
23.01.2019 01:00 -2,5 C -2,8 C -3,3 C 96 % 997,8 hPa 0,0 l/m 0,00 h 0,00 h 0 W/m 19,6 km/h (3 Bft) 97,93 %
23.01.2019 02:00 -2,3 C -2,2 C -2,8 C 96 % 997,4 hPa 0,0 l/m 0,00 h 0,00 h 0 W/m 19,9 km/h (4 Bft) 98,36 %
23.01.2019 03:00 -2,3 C -2,2 C -2,8 C 95 % 997,0 hPa 0,0 l/m 0,00 h 0,00 h 0 W/m 17,5 km/h (3 Bft) 97,37 %
23.01.2019 04:00 -2,2 C -2,2 C -2,8 C 94 % 996,5 hPa 0,0 l/m 0,00 h 0,00 h 0 W/m 16,4 km/h (3 Bft) 96,52 %
23.01.2019 05:00 -2,2 C -2,2 C -2,9 C 93 % 996,0 hPa 0,0 l/m 0,00 h 0,00 h 0 W/m 13,9 km/h (3 Bft) 98,72 %
23.01.2019 06:00 -2,0 C -2,4 C -3,1 C 92 % 995,9 hPa 0,0 l/m 0,00 h 0,00 h 0 W/m 12,6 km/h (3 Bft) 97,87 %
23.01.2019 07:00 -2,6 C -3,2 C -3,9 C 90 % 995,9 hPa 0,0 l/m 0,00 h 0,00 h 0 W/m 7,9 km/h (2 Bft) 97,30 %
23.01.2019 08:00 -2,3 C -2,4 C -3,0 C 91 % 996,1 hPa 0,0 l/m 0,00 h 0,00 h 11 W/m 9,9 km/h (2 Bft) 96,52 %
23.01.2019 09:00 -1,7 C -1,6 C -2,2 C 90 % 996,4 hPa 0,0 l/m 0,07 h 0,00 h 49 W/m 10,3 km/h (2 Bft) 97,73 %
23.01.2019 10:00 -1,1 C -0,6 C -1,1 C 87 % 996,8 hPa 0,0 l/m 0,53 h 0,00 h 128 W/m 12,0 km/h (2 Bft) 98,32 %
23.01.2019 11:00 -0,9 C -0,6 C -0,9 C 86 % 997,2 hPa 0,0 l/m 0,00 h 0,00 h 130 W/m 11,5 km/h (2 Bft) 95,97 %
23.01.2019 12:00 -0,5 C 0,4 C 0,0 C 85 % 997,3 hPa 0,2 l/m 0,13 h 0,00 h 170 W/m 10,0 km/h (2 Bft) 98,10 %
23.01.2019 13:00 -0,0 C 0,7 C 0,4 C 83 % 997,7 hPa 0,2 l/m 0,00 h 0,00 h 159 W/m 8,8 km/h (2 Bft) 98,60 %
23.01.2019 14:00 0,2 C 0,6 C 0,0 C 82 % 997,9 hPa 0,2 l/m 0,00 h 0,00 h 87 W/m 4,8 km/h (1 Bft) 96,36 %
23.01.2019 15:00 0,4 C 0,1 C -0,5 C 83 % 998,2 hPa 0,4 l/m 0,00 h 0,00 h 48 W/m 5,9 km/h (2 Bft) 95,50 %
23.01.2019 16:00 -0,4 C -1,0 C -1,7 C 84 % 999,0 hPa 0,0 l/m 0,00 h 0,00 h 13 W/m 8,7 km/h (2 Bft) 97,71 %
23.01.2019 17:00 -1,0 C -1,7 C -2,2 C 84 % 999,8 hPa 0,2 l/m 0,00 h 0,00 h 5 W/m 7,1 km/h (2 Bft) 98,20 %
23.01.2019 18:00 -1,3 C -1,9 C -2,4 C 85 % 1000,6 hPa 0,0 l/m 0,00 h 0,00 h 0 W/m 8,6 km/h (2 Bft) 96,92 %
23.01.2019 19:00 -1,8 C -2,2 C -2,8 C 83 % 1001,4 hPa 0,0 l/m 0,00 h 0,00 h 0 W/m 8,9 km/h (2 Bft) 96,35 %
23.01.2019 20:00 -2,1 C -2,8 C -3,3 C 84 % 1002,0 hPa 0,0 l/m 0,00 h 0,00 h 0 W/m 6,7 km/h (2 Bft) 97,96 %
23.01.2019 21:00 -2,4 C -2,8 C -3,3 C 84 % 1002,4 hPa 0,0 l/m 0,00 h 0,00 h 0 W/m 5,8 km/h (2 Bft) 99,30 %
23.01.2019 22:00 -2,5 C -3,0 C -3,4 C 84 % 1002,9 hPa 0,0 l/m 0,00 h 0,00 h 0 W/m 5,8 km/h (2 Bft) 94,44 %
23.01.2019 23:00 -2,6 C -3,3 C -3,9 C 85 % 1003,5 hPa 0,0 l/m 0,00 h 0,00 h 0 W/m 5,4 km/h (1 Bft) 98,15 %
24.01.2019 00:00 -2,8 C -3,3 C -3,9 C 85 % 1004,3 hPa 0,0 l/m 0,00 h 0,00 h 0 W/m 5,4 km/h (1 Bft) 98,01 %
24.01.2019 01:00 -2,8 C -3,3 C -3,9 C 85 % 1005,0 hPa 0,0 l/m 0,00 h 0,00 h 0 W/m 8,6 km/h (2 Bft) 97,57 %
24.01.2019 02:00 -2,9 C -3,3 C -3,9 C 86 % 1005,5 hPa 0,0 l/m 0,00 h 0,00 h 0 W/m 8,9 km/h (2 Bft) 97,36 %
24.01.2019 03:00 -3,1 C -3,5 C -3,9 C 86 % 1005,9 hPa 0,0 l/m 0,00 h 0,00 h 0 W/m 7,6 km/h (2 Bft) 96,73 %
24.01.2019 04:00 -3,2 C -3,9 C -4,3 C 86 % 1006,1 hPa 0,0 l/m 0,00 h 0,00 h 0 W/m 8,1 km/h (2 Bft) 96,93 %
24.01.2019 05:00 -3,4 C -3,9 C -4,4 C 87 % 1006,4 hPa 0,0 l/m 0,00 h 0,00 h 0 W/m 8,7 km/h (2 Bft) 98,90 %
24.01.2019 06:00 -3,5 C -3,9 C -4,4 C 87 % 1006,9 hPa 0,0 l/m 0,00 h 0,00 h 0 W/m 6,8 km/h (2 Bft) 98,13 %
24.01.2019 07:00 -3,7 C -4,0 C -4,4 C 87 % 1007,1 hPa 0,0 l/m 0,00 h 0,00 h 0 W/m 5,1 km/h (1 Bft) 94,50 %
24.01.2019 08:00 -3,7 C -3,9 C -4,4 C 87 % 1008,1 hPa 0,0 l/m 0,00 h 0,00 h 6 W/m 5,0 km/h (1 Bft) 99,30 %
24.01.2019 09:00 -3,7 C -3,9 C -4,3 C 88 % 1008,8 hPa 0,0 l/m 0,00 h 0,00 h 17 W/m 6,6 km/h (2 Bft) 97,75 %
24.01.2019 10:00 -3,5 C -3,3 C -3,8 C 87 % 1008,8 hPa 0,0 l/m 0,00 h 0,00 h 50 W/m 4,4 km/h (1 Bft) 97,48 %
24.01.2019 11:00 -3,2 C -2,9 C -3,3 C 86 % 1009,2 hPa 0,0 l/m 0,00 h 0,00 h 65 W/m 5,1 km/h (1 Bft) 97,56 %
24.01.2019 12:00 -2,7 C -2,3 C -2,9 C 85 % 1009,4 hPa 0,0 l/m 0,00 h 0,00 h 90 W/m 5,7 km/h (1 Bft) 95,65 %
24.01.2019 13:00 -2,5 C -2,2 C -2,8 C 83 % 1009,4 hPa 0,0 l/m 0,00 h 0,00 h 93 W/m 7,1 km/h (2 Bft) 98,93 %
24.01.2019 14:00 -2,6 C -2,5 C -2,9 C 82 % 1009,4 hPa 0,0 l/m 0,00 h 0,00 h 84 W/m 6,4 km/h (2 Bft) 96,72 %
24.01.2019 15:00 -2,8 C -3,3 C -3,5 C 82 % 1009,7 hPa 0,0 l/m 0,00 h 0,00 h 41 W/m 4,4 km/h (1 Bft) 96,31 %
24.01.2019 16:00 -3,1 C -3,5 C -3,9 C 83 % 1010,1 hPa 0,0 l/m 0,00 h 0,00 h 15 W/m 4,3 km/h (1 Bft) 99,15 %
24.01.2019 17:00 -3,3 C -3,9 C -4,4 C 85 % 1010,5 hPa 0,0 l/m 0,00 h 0,00 h 3 W/m 2,8 km/h (1 Bft) 97,16 %
24.01.2019 18:00 -3,4 C -3,9 C -4,4 C 85 % 1010,9 hPa 0,0 l/m 0,00 h 0,00 h 0 W/m 3,3 km/h (1 Bft) 95,44 %
24.01.2019 19:00 -3,4 C -3,9 C -4,4 C 86 % 1011,5 hPa 0,0 l/m 0,00 h 0,00 h 0 W/m 3,3 km/h (1 Bft) 98,64 %
24.01.2019 20:00 -3,3 C -3,9 C -4,1 C 86 % 1011,9 hPa 0,0 l/m 0,00 h 0,00 h 0 W/m 4,5 km/h (1 Bft) 97,30 %
24.01.2019 21:00 -3,2 C -3,5 C -3,9 C 86 % 1012,0 hPa 0,0 l/m 0,00 h 0,00 h 0 W/m 5,2 km/h (1 Bft) 97,01 %
24.01.2019 22:00 -3,1 C -3,3 C -3,9 C 87 % 1012,2 hPa 0,0 l/m 0,00 h 0,00 h 0 W/m 6,7 km/h (2 Bft) 84,86 %
24.01.2019 23:00 -3,1 C -3,3 C -3,9 C 87 % 1012,4 hPa 0,0 l/m 0,00 h 0,00 h 0 W/m 5,7 km/h (1 Bft) 97,58 %
25.01.2019 00:00 -3,0 C -3,3 C -3,9 C 87 % 1012,6 hPa 0,0 l/m 0,00 h 0,00 h 0 W/m 6,0 km/h (2 Bft) 97,40 %
25.01.2019 01:00 -3,0 C -3,3 C -3,9 C 87 % 1012,5 hPa 0,0 l/m 0,00 h 0,00 h 0 W/m 5,9 km/h (2 Bft) 98,79 %
25.01.2019 02:00 -2,9 C -3,3 C -3,9 C 88 % 1012,6 hPa 0,0 l/m 0,00 h 0,00 h 0 W/m 5,9 km/h (2 Bft) 94,38 %
25.01.2019 03:00 -2,8 C -3,3 C -3,8 C 89 % 1012,8 hPa 0,0 l/m 0,00 h 0,00 h 0 W/m 3,6 km/h (1 Bft) 97,79 %
25.01.2019 04:00 -2,7 C -3,0 C -3,3 C 90 % 1012,8 hPa 0,0 l/m 0,00 h 0,00 h 0 W/m 2,7 km/h (1 Bft) 99,14 %
25.01.2019 05:00 -2,6 C -2,8 C -3,3 C 91 % 1012,8 hPa 0,0 l/m 0,00 h 0,00 h 0 W/m 3,7 km/h (1 Bft) 96,01 %
25.01.2019 06:00 -2,5 C -2,8 C -3,3 C 92 % 1013,0 hPa 0,0 l/m 0,00 h 0,00 h 0 W/m 3,6 km/h (1 Bft) 97,35 %
25.01.2019 07:00 -2,3 C -2,8 C -3,3 C 92 % 1013,2 hPa 0,0 l/m 0,00 h 0,00 h 0 W/m 5,5 km/h (1 Bft) 97,44 %
25.01.2019 08:00 -2,2 C -2,4 C -2,9 C 93 % 1013,3 hPa 0,0 l/m 0,00 h 0,00 h 10 W/m 7,5 km/h (2 Bft) 96,33 %
25.01.2019 09:00 -1,8 C -1,8 C -2,2 C 94 % 1013,5 hPa 0,0 l/m 0,00 h 0,00 h 35 W/m 5,1 km/h (1 Bft) 98,37 %
25.01.2019 10:00 -1,2 C -0,9 C -1,4 C 94 % 1013,6 hPa 0,0 l/m 0,00 h 0,00 h 55 W/m 7,8 km/h (2 Bft) 94,34 %
25.01.2019 11:00 -0,1 C 0,3 C -0,0 C 94 % 1013,4 hPa 0,0 l/m 0,00 h 0,00 h 81 W/m 9,4 km/h (2 Bft) 98,22 %
25.01.2019 12:00 0,6 C 1,0 C 0,7 C 93 % 1012,7 hPa 0,2 l/m 0,00 h 0,00 h 114 W/m 11,3 km/h (2 Bft) 94,96 %
25.01.2019 13:00 1,3 C 2,2 C 1,6 C 91 % 1012,4 hPa 0,2 l/m 0,27 h 0,00 h 169 W/m 14,2 km/h (3 Bft) 88,70 %
25.01.2019 14:00 2,0 C 2,5 C 1,8 C 87 % 1012,1 hPa 0,6 l/m 0,07 h 0,00 h 134 W/m 15,5 km/h (3 Bft) 87,31 %
25.01.2019 15:00 2,1 C 2,0 C 1,5 C 87 % 1011,2 hPa 0,2 l/m 0,00 h 0,00 h 70 W/m 18,0 km/h (3 Bft) 97,73 %
25.01.2019 16:00 2,0 C 1,2 C 0,6 C 88 % 1011,0 hPa 0,2 l/m 0,00 h 0,30 h 18 W/m 13,2 km/h (3 Bft) 95,26 %
25.01.2019 17:00 1,5 C 0,6 C 0,0 C 92 % 1010,5 hPa 0,4 l/m 0,00 h 0,47 h 0 W/m 18,8 km/h (3 Bft) 98,70 %
25.01.2019 18:00 1,3 C 0,6 C 0,0 C 95 % 1009,8 hPa 0,4 l/m 0,00 h 0,30 h 0 W/m 18,8 km/h (3 Bft) 97,68 %
25.01.2019 19:00 1,4 C 0,6 C 0,0 C 96 % 1009,4 hPa 0,6 l/m 0,00 h 0,33 h 0 W/m 17,6 km/h (3 Bft) 97,15 %
25.01.2019 20:00 1,6 C 1,0 C 0,3 C 97 % 1008,9 hPa 0,4 l/m 0,00 h 0,43 h 0 W/m 14,3 km/h (3 Bft) 97,51 %
25.01.2019 21:00 1,9 C 1,2 C 0,6 C 97 % 1008,5 hPa 0,4 l/m 0,00 h 0,33 h 0 W/m 12,9 km/h (3 Bft) 97,36 %
25.01.2019 22:00 2,3 C 1,7 C 1,0 C 97 % 1008,2 hPa 0,4 l/m 0,00 h 0,10 h 0 W/m 14,8 km/h (3 Bft) 97,50 %
25.01.2019 23:00 2,6 C 2,2 C 1,3 C 98 % 1008,0 hPa 0,2 l/m 0,00 h 0,03 h 0 W/m 15,4 km/h (3 Bft) 96,73 %
26.01.2019 00:00 3,1 C 2,7 C 1,7 C 98 % 1007,8 hPa 0,0 l/m 0,00 h 0,00 h 0 W/m 13,2 km/h (3 Bft) 94,89 %
26.01.2019 01:00 3,5 C 3,0 C 2,2 C 98 % 1007,7 hPa 0,0 l/m 0,00 h 0,00 h 0 W/m 12,4 km/h (3 Bft) 97,79 %
26.01.2019 02:00 3,8 C 3,3 C 2,4 C 98 % 1007,3 hPa 0,0 l/m 0,00 h 0,00 h 0 W/m 13,9 km/h (3 Bft) 97,01 %
26.01.2019 03:00 4,2 C 3,8 C 2,9 C 99 % 1006,9 hPa 0,0 l/m 0,00 h 0,00 h 0 W/m 14,3 km/h (3 Bft) 97,58 %
26.01.2019 04:00 4,6 C 4,2 C 3,3 C 99 % 1006,7 hPa 0,0 l/m 0,00 h 0,00 h 0 W/m 14,1 km/h (3 Bft) 96,91 %
26.01.2019 05:00 4,9 C 4,4 C 3,5 C 99 % 1006,6 hPa 0,0 l/m 0,00 h 0,00 h 0 W/m 15,5 km/h (3 Bft) 99,16 %
26.01.2019 06:00 5,2 C 4,6 C 3,9 C 99 % 1006,0 hPa 0,0 l/m 0,00 h 0,00 h 0 W/m 19,1 km/h (3 Bft) 97,28 %
26.01.2019 07:00 5,3 C 5,0 C 3,9 C 99 % 1006,0 hPa 0,0 l/m 0,00 h 0,00 h 0 W/m 16,5 km/h (3 Bft) 95,70 %
26.01.2019 08:00 5,3 C 5,0 C 3,9 C 99 % 1005,8 hPa 0,0 l/m 0,00 h 0,00 h 6 W/m 20,0 km/h (4 Bft) 99,79 %
26.01.2019 09:00 5,4 C 5,0 C 4,3 C 99 % 1005,7 hPa 0,0 l/m 0,00 h 0,00 h 15 W/m 19,8 km/h (4 Bft) 96,07 %
26.01.2019 10:00 5,4 C 5,2 C 4,4 C 99 % 1005,7 hPa 0,0 l/m 0,00 h 0,00 h 36 W/m 17,4 km/h (3 Bft) 96,70 %
26.01.2019 11:00 5,7 C 5,8 C 4,8 C 99 % 1005,6 hPa 0,0 l/m 0,00 h 0,00 h 54 W/m 14,6 km/h (3 Bft) 99,71 %
26.01.2019 12:00 6,3 C 6,7 C 5,6 C 99 % 1005,0 hPa 0,0 l/m 0,00 h 0,00 h 86 W/m 12,4 km/h (3 Bft) 96,83 %
26.01.2019 13:00 7,1 C 7,7 C 6,5 C 99 % 1004,0 hPa 0,0 l/m 0,13 h 0,00 h 136 W/m 14,3 km/h (3 Bft) 97,19 %
26.01.2019 14:00 7,2 C 7,0 C 6,1 C 96 % 1003,0 hPa 0,0 l/m 0,00 h 0,00 h 53 W/m 13,5 km/h (3 Bft) 96,99 %
26.01.2019 15:00 7,1 C 6,3 C 5,8 C 95 % 1002,3 hPa 0,0 l/m 0,00 h 0,37 h 28 W/m 15,7 km/h (3 Bft) 97,00 %
26.01.2019 16:00 6,8 C 6,1 C 5,5 C 95 % 1001,3 hPa 0,0 l/m 0,00 h 0,00 h 17 W/m 19,1 km/h (3 Bft) 98,20 %
26.01.2019 17:00 6,6 C 5,7 C 5,2 C 96 % 1000,4 hPa 0,2 l/m 0,00 h 0,33 h 1 W/m 19,1 km/h (3 Bft) 96,59 %
26.01.2019 18:00 6,2 C 5,0 C 4,5 C 96 % 999,4 hPa 0,2 l/m 0,00 h 0,30 h 0 W/m 15,3 km/h (3 Bft) 98,48 %
26.01.2019 19:00 6,0 C 5,0 C 4,4 C 97 % 998,3 hPa 0,0 l/m 0,00 h 0,17 h 0 W/m 17,3 km/h (3 Bft) 96,64 %
26.01.2019 20:00 6,0 C 5,5 C 4,8 C 97 % 997,3 hPa 0,0 l/m 0,00 h 0,00 h 0 W/m 22,6 km/h (4 Bft) 98,05 %
26.01.2019 21:00 6,4 C 5,6 C 5,0 C 95 % 996,0 hPa 0,0 l/m 0,00 h 0,00 h 0 W/m 24,0 km/h (4 Bft) 98,93 %
26.01.2019 22:00 6,4 C 5,5 C 4,9 C 92 % 994,7 hPa 0,0 l/m 0,00 h 0,27 h 0 W/m 21,2 km/h (4 Bft) 95,69 %
26.01.2019 23:00 6,3 C 5,1 C 4,5 C 92 % 993,5 hPa 0,0 l/m 0,00 h 0,33 h 0 W/m 20,1 km/h (4 Bft) 98,15 %
27.01.2019 00:00 6,2 C 5,4 C 4,4 C 93 % 992,0 hPa 0,0 l/m 0,00 h 0,00 h 0 W/m 23,1 km/h (4 Bft) 98,15 %
27.01.2019 01:00 5,9 C 5,1 C 4,3 C 94 % 990,7 hPa 0,4 l/m 0,00 h 0,67 h 0 W/m 18,0 km/h (3 Bft) 96,24 %
27.01.2019 02:00 6,3 C 5,0 C 4,4 C 95 % 989,4 hPa 0,6 l/m 0,00 h 0,93 h 0 W/m 20,3 km/h (4 Bft) 98,43 %
27.01.2019 03:00 6,2 C 5,4 C 4,4 C 96 % 988,2 hPa 0,0 l/m 0,00 h 0,33 h 0 W/m 19,1 km/h (3 Bft) 98,06 %
27.01.2019 04:00 6,3 C 5,4 C 4,5 C 95 % 987,0 hPa 0,0 l/m 0,00 h 0,00 h 0 W/m 21,4 km/h (4 Bft) 96,83 %
27.01.2019 05:00 6,4 C 5,6 C 5,0 C 94 % 985,9 hPa 0,0 l/m 0,00 h 0,00 h 0 W/m 18,2 km/h (3 Bft) 97,24 %
27.01.2019 06:00 6,4 C 5,9 C 4,8 C 93 % 985,1 hPa 0,0 l/m 0,00 h 0,00 h 0 W/m 17,0 km/h (3 Bft) 99,23 %
27.01.2019 07:00 6,3 C 5,9 C 4,4 C 93 % 984,4 hPa 0,0 l/m 0,00 h 0,00 h 0 W/m 17,5 km/h (3 Bft) 97,60 %
27.01.2019 08:00 6,3 C 5,8 C 4,4 C 92 % 983,9 hPa 0,0 l/m 0,00 h 0,00 h 12 W/m 17,6 km/h (3 Bft) 95,45 %
27.01.2019 09:00 6,3 C 6,1 C 4,9 C 92 % 983,5 hPa 0,0 l/m 0,00 h 0,03 h 31 W/m 21,4 km/h (4 Bft) 99,71 %
27.01.2019 10:00 6,8 C 6,4 C 5,5 C 90 % 983,2 hPa 0,2 l/m 0,00 h 0,53 h 48 W/m 24,6 km/h (4 Bft) 96,87 %
27.01.2019 11:00 6,7 C 5,5 C 4,9 C 92 % 983,0 hPa 0,4 l/m 0,00 h 1,00 h 60 W/m 27,0 km/h (4 Bft) 95,88 %
27.01.2019 12:00 6,4 C 5,1 C 4,6 C 93 % 982,6 hPa 0,2 l/m 0,00 h 1,00 h 54 W/m 25,0 km/h (4 Bft) 99,52 %
27.01.2019 13:00 6,4 C 5,8 C 5,0 C 95 % 982,2 hPa 0,0 l/m 0,13 h 0,43 h 119 W/m 20,4 km/h (4 Bft) 96,73 %
27.01.2019 14:00 6,7 C 5,8 C 5,3 C 95 % 982,1 hPa 0,0 l/m 0,00 h 0,77 h 75 W/m 19,4 km/h (3 Bft) 96,25 %
27.01.2019 15:00 6,2 C 5,0 C 4,5 C 94 % 982,5 hPa 0,4 l/m 0,00 h 0,43 h 27 W/m 17,3 km/h (3 Bft) 98,31 %
27.01.2019 16:00 4,9 C 3,8 C 3,3 C 95 % 983,8 hPa 1,0 l/m 0,00 h 0,83 h 9 W/m 22,1 km/h (4 Bft) 98,92 %
27.01.2019 17:00 4,3 C 3,3 C 2,9 C 96 % 985,1 hPa 0,2 l/m 0,00 h 0,40 h 5 W/m 17,7 km/h (3 Bft) 95,36 %
27.01.2019 18:00 3,8 C 2,8 C 2,5 C 96 % 986,0 hPa 0,0 l/m 0,00 h 0,10 h 0 W/m 18,4 km/h (3 Bft) 97,98 %
27.01.2019 19:00 3,6 C 2,8 C 2,2 C 96 % 986,8 hPa 0,2 l/m 0,00 h 0,40 h 0 W/m 14,0 km/h (3 Bft) 98,93 %
27.01.2019 20:00 3,3 C 2,5 C 1,9 C 95 % 987,3 hPa 0,0 l/m 0,00 h 0,00 h 0 W/m 13,0 km/h (3 Bft) 96,22 %
27.01.2019 21:00 2,9 C 2,2 C 1,7 C 94 % 987,8 hPa 0,0 l/m 0,00 h 0,13 h 0 W/m 15,5 km/h (3 Bft) 97,65 %
27.01.2019 22:00 2,9 C 2,2 C 1,7 C 95 % 987,7 hPa 0,0 l/m 0,00 h 0,67 h 0 W/m 21,4 km/h (4 Bft) 98,22 %
27.01.2019 23:00 3,0 C 2,2 C 1,7 C 95 % 987,5 hPa 0,0 l/m 0,00 h 0,30 h 0 W/m 20,1 km/h (4 Bft) 97,35 %
Min-Datum _ 21.01.19 21.01.19 21.01.19 21.01.19 27.01.19 - - - - 21.01.19 26.01.19
_ Min-Zeit 02:22 02:14 06:34 14:38 13:38 - - - - 00:00 00:02
Minimum _ -6,8 C -7,8 C -8,9 C 72 % 982,0 hPa - - - - 0,0 km/h (0 Bft) 10,53 %
Max-Datum _ 26.01.19 21.01.19 26.01.19 26.01.19 21.01.19 27.01.19 21.01.19 26.01.19 22.01.19 27.01.19 21.01.19
_ Max-Zeit 13:40 14:14 13:08 01:50 09:50 16:02 12:08 18:08 12:56 11:30 00:12
Maximum _ 7,3 C 8,3 C 6,7 C 99 % 1022,1 hPa 1,0 l/m 0,07 h 0,07 h 384 W/m 51,5 km/h
S-SO (7 Bft)
100,00 %
Durchschnitt _ -0,1 C -0,3 C -1,1 C 90 % 1004,8 hPa #9,4 l/m #10:32 h #13:06 h 80 W/m 13,0 km/h (3 Bft) 97,15 %
© 2019 W. Hausmann